createdAt,value
2023-03-02T00:04:12.370Z,101732.19
2023-03-02T00:09:12.599Z,101727.69
2023-03-02T00:14:11.353Z,101720.56
2023-03-02T00:19:10.110Z,101731.13
2023-03-02T00:24:09.327Z,101718.06
2023-03-02T00:29:09.884Z,101711.16
2023-03-02T00:34:08.983Z,101706.88
2023-03-02T00:39:09.415Z,101704.16
2023-03-02T00:44:09.614Z,101705.88
2023-03-02T00:49:08.567Z,101706.88
2023-03-02T00:54:07.541Z,101706.91
2023-03-02T00:59:07.301Z,101699.63
2023-03-02T01:04:08.426Z,101684.88
2023-03-02T01:09:07.375Z,101686.94
2023-03-02T01:14:06.350Z,101679.88
2023-03-02T01:19:05.304Z,101680.59
2023-03-02T01:24:06.662Z,101678.28
2023-03-02T01:29:06.106Z,101671.22
2023-03-02T01:34:05.025Z,101677.22
2023-03-02T01:39:05.510Z,101676.09
2023-03-02T01:44:04.498Z,101668.59
2023-03-02T01:49:06.283Z,101668.41
2023-03-02T01:54:23.356Z,101666.34
2023-03-02T01:59:29.318Z,101663.94
2023-03-02T02:04:32.135Z,101674.06
2023-03-02T02:09:35.016Z,101669.25
2023-03-02T02:14:34.144Z,101666.78
2023-03-02T02:19:46.217Z,101667.31
2023-03-02T02:24:51.364Z,101655.47
2023-03-02T02:29:53.424Z,101665.47
2023-03-02T02:34:56.717Z,101667.97
2023-03-02T02:39:56.884Z,101667.06
2023-03-02T02:45:04.207Z,101668.03
2023-03-02T02:50:03.763Z,101671.13
2023-03-02T02:55:04.226Z,101677.16
2023-03-02T03:05:37.409Z,101685.34
2023-03-02T03:10:41.414Z,101686.38
2023-03-02T03:15:42.094Z,101693.66
2023-03-02T03:20:55.438Z,101687.78
2023-03-02T03:25:54.605Z,101697.34
2023-03-02T03:30:55.272Z,101707.53
2023-03-02T03:35:54.404Z,101709.13
2023-03-02T03:40:54.770Z,101705.19
2023-03-02T03:45:55.186Z,101706.38
2023-03-02T03:50:54.717Z,101714.63
2023-03-02T03:55:54.432Z,101713.47
2023-03-02T04:00:55.949Z,101713.78
2023-03-02T04:05:54.887Z,101720.84
2023-03-02T04:10:54.090Z,101724.50
2023-03-02T04:15:54.397Z,101707.94
2023-03-02T04:20:53.353Z,101709.47
2023-03-02T04:25:52.326Z,101710.09
2023-03-02T04:30:55.198Z,101715.25
2023-03-02T04:35:55.389Z,101725.81
2023-03-02T04:40:54.902Z,101728.63
2023-03-02T04:45:55.662Z,101726.00
2023-03-02T04:51:00.640Z,101723.41
2023-03-02T04:55:59.849Z,101732.25
2023-03-02T05:01:02.445Z,101734.81
2023-03-02T05:06:02.390Z,101728.88
2023-03-02T05:11:01.302Z,101733.13
2023-03-02T05:16:02.272Z,101726.31
2023-03-02T05:21:01.131Z,101736.72
2023-03-02T05:26:00.223Z,101741.19
2023-03-02T05:30:59.515Z,101743.03
2023-03-02T05:36:01.427Z,101734.16
2023-03-02T05:41:01.488Z,101746.13
2023-03-02T05:46:01.145Z,101742.00
2023-03-02T05:51:01.343Z,101741.31
2023-03-02T05:56:00.330Z,101747.53
2023-03-02T06:00:59.484Z,101738.94
2023-03-02T06:05:58.298Z,101738.94
2023-03-02T06:10:59.515Z,101758.03
2023-03-02T06:15:58.456Z,101750.16
2023-03-02T06:20:57.403Z,101758.84
2023-03-02T06:25:56.491Z,101770.81
2023-03-02T06:30:56.698Z,101773.34
2023-03-02T06:35:55.860Z,101780.19
2023-03-02T06:40:55.232Z,101780.03
2023-03-02T06:45:54.135Z,101778.19
2023-03-02T06:50:54.773Z,101783.34
2023-03-02T06:55:54.172Z,101780.81
2023-03-02T07:00:53.021Z,101785.19
2023-03-02T07:05:57.741Z,101792.25
2023-03-02T07:10:56.649Z,101795.06
2023-03-02T07:15:56.374Z,101790.50
2023-03-02T07:20:56.718Z,101788.75
2023-03-02T07:25:55.504Z,101792.19
2023-03-02T07:30:55.329Z,101789.69
2023-03-02T07:35:54.288Z,101787.97
2023-03-02T07:40:54.778Z,101794.81
2023-03-02T07:45:53.661Z,101785.94
2023-03-02T07:50:52.632Z,101794.66
2023-03-02T07:55:51.494Z,101792.03
2023-03-02T08:00:52.179Z,101799.88
2023-03-02T08:05:50.963Z,101798.25
2023-03-02T08:10:49.794Z,101798.19
2023-03-02T08:15:48.586Z,101798.06
2023-03-02T08:20:48.777Z,101807.00
2023-03-02T08:25:48.037Z,101798.25
2023-03-02T08:30:46.908Z,101807.81
2023-03-02T08:35:45.902Z,101802.72
2023-03-02T08:40:46.151Z,101793.16
2023-03-02T08:45:44.908Z,101774.97
2023-03-02T08:50:43.858Z,101790.63
2023-03-02T08:55:42.701Z,101783.44
2023-03-02T09:00:42.879Z,101781.63
2023-03-02T09:05:41.758Z,101785.78
2023-03-02T09:10:41.145Z,101781.41
2023-03-02T09:15:40.687Z,101791.03
2023-03-02T09:20:40.959Z,101776.84
2023-03-02T09:25:39.729Z,101773.63
2023-03-02T09:30:46.577Z,101772.94
2023-03-02T09:35:47.980Z,101771.09
2023-03-02T09:41:05.119Z,101769.19
2023-03-02T09:46:16.060Z,101768.00
2023-03-02T09:51:29.555Z,101765.53
2023-03-02T09:56:28.830Z,101767.72
2023-03-02T10:01:37.798Z,101764.72
2023-03-02T10:06:40.442Z,101767.66
2023-03-02T10:11:51.748Z,101763.53
2023-03-02T10:16:54.184Z,101755.81
2023-03-02T10:22:01.986Z,101750.56
2023-03-02T10:27:12.829Z,101741.75
2023-03-02T10:32:21.569Z,101737.28
2023-03-02T10:37:25.455Z,101735.88
2023-03-02T10:42:30.254Z,101728.78
2023-03-02T10:47:30.965Z,101712.25
2023-03-02T10:52:31.300Z,101713.13
2023-03-02T10:57:35.578Z,101699.94
2023-03-02T11:02:40.946Z,101697.91
2023-03-02T11:07:41.589Z,101700.06
2023-03-02T11:12:48.586Z,101693.59
2023-03-02T11:17:50.515Z,101681.72
2023-03-02T11:23:01.999Z,101674.66
2023-03-02T11:28:10.536Z,101672.63
2023-03-02T11:33:16.417Z,101665.97
2023-03-02T11:38:22.416Z,101674.72
2023-03-02T11:43:21.311Z,101672.47
2023-03-02T11:48:26.308Z,101666.66
2023-03-02T11:53:31.801Z,101660.59
2023-03-02T11:58:33.077Z,101655.53
2023-03-02T12:03:41.561Z,101655.19
2023-03-02T12:08:44.273Z,101650.41
2023-03-02T12:13:43.877Z,101647.66
2023-03-02T12:18:45.517Z,101647.31
2023-03-02T12:24:00.065Z,101639.09
2023-03-02T12:29:03.746Z,101635.38
2023-03-02T12:34:08.074Z,101625.00
2023-03-02T12:39:31.565Z,101620.59
2023-03-02T12:44:44.022Z,101621.16
2023-03-02T12:49:49.631Z,101623.16
2023-03-02T12:55:01.793Z,101620.63
2023-03-02T13:00:02.650Z,101618.19
2023-03-02T13:05:03.576Z,101631.69
2023-03-02T13:10:09.874Z,101620.84
2023-03-02T13:15:16.808Z,101620.19
2023-03-02T13:20:16.496Z,101613.06
2023-03-02T13:25:26.369Z,101604.00
2023-03-02T13:30:28.248Z,101597.44
2023-03-02T13:35:29.269Z,101586.75
2023-03-02T13:40:51.834Z,101581.88
2023-03-02T13:45:56.771Z,101574.47
2023-03-02T13:51:05.328Z,101570.97
2023-03-02T13:56:06.095Z,101566.91
2023-03-02T14:01:06.555Z,101573.88
2023-03-02T14:06:07.124Z,101566.06
2023-03-02T14:11:08.698Z,101557.06
2023-03-02T14:16:08.715Z,101561.00
2023-03-02T14:21:11.925Z,101544.63
2023-03-02T14:26:29.346Z,101539.53
2023-03-02T14:31:29.614Z,101532.03
2023-03-02T14:36:31.964Z,101531.56
2023-03-02T14:41:34.416Z,101530.69
2023-03-02T14:46:38.514Z,101528.34
2023-03-02T14:51:40.412Z,101525.53
2023-03-02T14:56:45.171Z,101522.28
2023-03-02T15:01:45.640Z,101524.72
2023-03-02T15:06:45.730Z,101516.25
2023-03-02T15:11:44.538Z,101516.00
2023-03-02T15:16:43.275Z,101510.03
2023-03-02T15:21:45.841Z,101504.91
2023-03-02T15:26:44.866Z,101501.81
2023-03-02T15:31:43.725Z,101507.22
2023-03-02T15:36:44.012Z,101508.81
2023-03-02T15:41:43.262Z,101507.22
2023-03-02T15:46:42.127Z,101507.88
2023-03-02T15:51:43.197Z,101503.34
2023-03-02T15:56:49.721Z,101509.56
2023-03-02T16:01:48.765Z,101504.63
2023-03-02T16:06:51.078Z,101492.97
2023-03-02T16:11:54.251Z,101498.53
2023-03-02T16:16:53.130Z,101510.88
2023-03-02T16:21:52.150Z,101507.84
2023-03-02T16:26:53.773Z,101508.59
2023-03-02T16:31:54.108Z,101518.41
2023-03-02T16:36:53.032Z,101524.72
2023-03-02T16:41:51.918Z,101526.28
2023-03-02T16:46:50.773Z,101523.38
2023-03-02T16:51:57.896Z,101521.66
2023-03-02T16:56:56.643Z,101529.72
2023-03-02T17:01:55.493Z,101526.19
2023-03-02T17:07:01.656Z,101535.47
2023-03-02T17:12:04.362Z,101534.41
2023-03-02T17:17:09.672Z,101541.13
2023-03-02T17:22:08.752Z,101537.75
2023-03-02T17:27:23.724Z,101544.69
2023-03-02T17:32:24.623Z,101547.41
2023-03-02T17:37:25.827Z,101547.50
2023-03-02T17:42:26.868Z,101543.13
2023-03-02T17:47:25.978Z,101546.69
2023-03-02T17:52:24.947Z,101545.59
2023-03-02T17:57:25.169Z,101546.56
2023-03-02T18:02:23.950Z,101542.28
2023-03-02T18:07:22.708Z,101544.84
2023-03-02T18:12:21.629Z,101548.13
2023-03-02T18:17:21.849Z,101545.59
2023-03-02T18:22:22.121Z,101544.53
2023-03-02T18:27:21.355Z,101535.41
2023-03-02T18:32:21.635Z,101530.69
2023-03-02T18:37:20.717Z,101534.13
2023-03-02T18:42:19.812Z,101531.56
2023-03-02T18:47:19.527Z,101541.53
2023-03-02T18:52:20.197Z,101548.25
2023-03-02T18:57:19.206Z,101545.34
2023-03-02T19:02:18.211Z,101550.41
2023-03-02T19:07:23.898Z,101544.97
2023-03-02T19:12:22.736Z,101546.66
2023-03-02T19:17:21.812Z,101547.47
2023-03-02T19:22:22.012Z,101543.78
2023-03-02T19:27:21.201Z,101552.69
2023-03-02T19:32:20.853Z,101559.72
2023-03-02T19:37:21.224Z,101562.25
2023-03-02T19:42:22.058Z,101565.69
2023-03-02T19:47:21.943Z,101560.41
2023-03-02T19:52:22.275Z,101558.75
2023-03-02T19:57:21.418Z,101566.03
2023-03-02T20:02:20.451Z,101560.13
2023-03-02T20:07:19.465Z,101555.78
2023-03-02T20:12:20.043Z,101559.22
2023-03-02T20:17:19.713Z,101546.16
2023-03-02T20:22:18.828Z,101539.44
2023-03-02T20:27:21.314Z,101540.44
2023-03-02T20:32:20.303Z,101534.41
2023-03-02T20:37:19.072Z,101528.94
2023-03-02T20:42:19.317Z,101519.38
2023-03-02T20:47:20.356Z,101519.38
2023-03-02T20:52:20.052Z,101514.13
2023-03-02T20:57:23.148Z,101511.75
2023-03-02T21:02:23.207Z,101499.59
2023-03-02T21:07:22.007Z,101492.53
2023-03-02T21:12:22.238Z,101487.22
2023-03-02T21:17:23.462Z,101473.50
2023-03-02T21:22:22.354Z,101477.34
2023-03-02T21:27:22.789Z,101463.19
2023-03-02T21:32:21.667Z,101456.16
2023-03-02T21:37:20.503Z,101458.88
2023-03-02T21:42:19.576Z,101457.47
2023-03-02T21:47:19.752Z,101452.06
2023-03-02T21:52:18.526Z,101443.63
2023-03-02T21:57:17.418Z,101439.94
2023-03-02T22:02:16.276Z,101437.41
2023-03-02T22:07:16.403Z,101432.75
2023-03-02T22:12:15.737Z,101428.81
2023-03-02T22:17:18.569Z,101426.00
2023-03-02T22:22:23.160Z,101418.19
2023-03-02T22:27:26.375Z,101412.88
2023-03-02T22:32:27.524Z,101407.75
2023-03-02T22:37:29.726Z,101402.56
2023-03-02T22:42:31.394Z,101408.59
2023-03-02T22:47:30.540Z,101408.56
2023-03-02T22:52:39.429Z,101389.97
2023-03-02T22:57:38.329Z,101387.34
2023-03-02T23:02:41.531Z,101387.91
2023-03-02T23:07:41.629Z,101387.91
2023-03-02T23:12:40.677Z,101385.16
2023-03-02T23:17:41.598Z,101368.78
2023-03-02T23:22:42.626Z,101370.34
2023-03-02T23:27:41.564Z,101366.78
2023-03-02T23:32:40.460Z,101364.09
2023-03-02T23:37:39.370Z,101361.44
2023-03-02T23:42:39.583Z,101361.53
2023-03-02T23:47:38.516Z,101351.84
2023-03-02T23:52:37.280Z,101347.31
2023-03-02T23:57:38.657Z,101348.09
